Time;durP1;ratioP1;P1;durP2;ratioP2;P2;SDS_P1;SDS_P2;PMS_P1;PMS_P2;Temp;Humidity;BMP_temperature;BMP_pressure;BME280_temperature;BME280_humidity;BME280_pressure;Samples;Min_cycle;Max_cycle;Signal;HPM_P1;HPM_P2
2022/01/09 00:00:29;;;;;;;1.50;1.40;;;5.70;99.90;;;;;;5074006;28;20893;-63
2022/01/09 00:02:56;;;;;;;1.50;1.40;;;5.60;99.90;;;;;;5073540;28;20551;-62
2022/01/09 00:05:23;;;;;;;1.57;1.47;;;5.70;99.90;;;;;;5073494;28;20455;-61
2022/01/09 00:07:51;;;;;;;1.73;1.40;;;5.60;99.90;;;;;;5073642;28;20451;-61
2022/01/09 00:10:19;;;;;;;1.50;1.40;;;5.70;99.90;;;;;;5073759;28;20836;-62
2022/01/09 00:12:46;;;;;;;1.50;1.40;;;5.60;99.90;;;;;;5073705;28;20440;-62
2022/01/09 00:15:13;;;;;;;1.33;1.23;;;5.60;99.90;;;;;;5073524;28;20482;-62
2022/01/09 00:17:42;;;;;;;1.33;1.23;;;5.60;99.90;;;;;;5073765;28;20890;-62
2022/01/09 00:20:11;;;;;;;1.47;1.37;;;5.60;99.90;;;;;;5073502;28;20444;-62
2022/01/09 00:22:43;;;;;;;1.50;1.40;;;5.60;99.90;;;;;;5073206;28;20994;-62
2022/01/09 00:25:12;;;;;;;1.33;1.23;;;5.60;99.90;;;;;;5073565;28;20437;-61
2022/01/09 00:27:39;;;;;;;1.63;1.50;;;5.60;99.90;;;;;;5073441;28;20459;-61
2022/01/09 00:30:08;;;;;;;2.40;1.70;;;5.50;99.90;;;;;;5073052;28;20542;-61
2022/01/09 00:32:35;;;;;;;1.40;1.30;;;5.60;99.90;;;;;;5073613;28;20808;-61
2022/01/09 00:35:06;;;;;;;1.40;1.30;;;5.50;99.90;;;;;;5073240;28;20451;-62
2022/01/09 00:37:33;;;;;;;1.30;1.20;;;5.50;99.90;;;;;;5073364;28;20436;-61
2022/01/09 00:40:00;;;;;;;1.17;1.07;;;5.50;99.90;;;;;;5073416;28;20531;-62
2022/01/09 00:42:28;;;;;;;1.40;1.30;;;5.50;99.90;;;;;;5073430;28;20557;-61
2022/01/09 00:44:55;;;;;;;1.30;1.20;;;5.50;99.90;;;;;;5073438;28;20451;-61
2022/01/09 00:47:22;;;;;;;1.43;1.33;;;5.40;99.90;;;;;;5073062;28;20552;-62
2022/01/09 00:49:49;;;;;;;1.57;1.47;;;5.50;99.90;;;;;;5073379;28;20457;-61
2022/01/09 00:52:18;;;;;;;1.30;1.20;;;5.50;99.90;;;;;;5073176;28;20460;-61
2022/01/09 00:54:45;;;;;;;1.30;1.20;;;5.40;99.90;;;;;;5073264;28;20462;-62
2022/01/09 00:57:13;;;;;;;1.57;1.27;;;5.40;99.90;;;;;;5072984;28;20448;-61
2022/01/09 00:59:40;;;;;;;1.30;1.20;;;5.30;99.90;;;;;;5073549;28;20451;-60
2022/01/09 01:02:07;;;;;;;1.20;1.10;;;5.40;99.90;;;;;;5077436;28;20464;-61
2022/01/09 01:04:34;;;;;;;1.30;1.20;;;5.40;99.90;;;;;;5077030;28;20490;-61
2022/01/09 01:07:01;;;;;;;1.20;1.10;;;5.30;99.90;;;;;;5077451;28;20454;-62
2022/01/09 01:09:31;;;;;;;1.20;1.10;;;5.30;99.90;;;;;;5077168;28;20479;-61
2022/01/09 01:11:58;;;;;;;1.20;1.10;;;5.30;99.90;;;;;;5077162;28;20533;-61
2022/01/09 01:14:27;;;;;;;1.60;1.50;;;5.40;99.90;;;;;;5076709;28;20444;-62
2022/01/09 01:16:54;;;;;;;6.60;1.57;;;5.30;99.90;;;;;;5077152;28;20517;-62
2022/01/09 01:19:22;;;;;;;1.23;1.13;;;5.40;99.90;;;;;;5076781;28;20891;-61
2022/01/09 01:21:49;;;;;;;1.33;1.23;;;5.40;99.90;;;;;;5076655;28;20967;-62
2022/01/09 01:24:17;;;;;;;1.27;1.17;;;5.40;99.90;;;;;;5076466;28;20479;-61
2022/01/09 01:26:46;;;;;;;1.20;1.10;;;5.50;99.90;;;;;;5076827;28;20595;-61
2022/01/09 01:29:13;;;;;;;1.27;1.17;;;5.40;99.90;;;;;;5076560;28;20502;-61
2022/01/09 01:31:41;;;;;;;1.10;1.00;;;5.40;99.90;;;;;;5076798;28;20551;-61
2022/01/09 01:34:08;;;;;;;1.20;1.10;;;5.40;99.90;;;;;;5076741;28;20757;-62
2022/01/09 01:36:35;;;;;;;1.20;1.10;;;5.40;99.90;;;;;;5076904;28;20452;-62
2022/01/09 01:39:02;;;;;;;1.13;1.03;;;5.50;99.90;;;;;;5076446;28;20450;-62
2022/01/09 01:41:29;;;;;;;1.20;1.10;;;5.50;99.90;;;;;;5076618;28;20865;-61
2022/01/09 01:43:58;;;;;;;1.27;1.17;;;5.50;99.90;;;;;;5076514;28;20479;-61
2022/01/09 01:46:25;;;;;;;1.20;1.10;;;5.50;99.90;;;;;;5076124;28;20443;-61
2022/01/09 01:48:52;;;;;;;1.20;1.10;;;5.50;99.90;;;;;;5076355;28;20506;-61
2022/01/09 01:51:20;;;;;;;1.27;1.17;;;5.60;99.90;;;;;;5076309;28;20468;-61
2022/01/09 01:53:48;;;;;;;1.20;1.10;;;5.60;99.90;;;;;;5076077;28;20815;-62
2022/01/09 01:56:19;;;;;;;1.20;1.10;;;5.60;99.90;;;;;;5075962;28;20444;-61
2022/01/09 01:58:47;;;;;;;1.50;1.40;;;5.60;99.90;;;;;;5076391;28;20452;-61
2022/01/09 02:01:16;;;;;;;1.20;1.10;;;5.60;99.90;;;;;;5076044;28;20823;-62
2022/01/09 02:03:43;;;;;;;1.30;1.20;;;5.60;99.90;;;;;;5076030;28;20495;-61
2022/01/09 02:06:14;;;;;;;1.20;1.10;;;5.60;99.90;;;;;;5075789;28;20448;-62
2022/01/09 02:08:42;;;;;;;1.20;1.10;;;5.70;99.90;;;;;;5075918;28;20475;-62
2022/01/09 02:11:09;;;;;;;1.20;1.10;;;5.70;99.90;;;;;;5075226;28;20551;-60
2022/01/09 02:13:39;;;;;;;1.30;1.20;;;5.70;99.90;;;;;;5075662;28;20519;-63
2022/01/09 02:16:07;;;;;;;1.30;1.20;;;5.70;99.90;;;;;;5075531;28;20484;-60
2022/01/09 02:18:36;;;;;;;1.17;1.07;;;5.60;99.90;;;;;;5075460;28;20542;-59
2022/01/09 02:21:05;;;;;;;1.37;1.27;;;5.70;99.90;;;;;;5075722;28;20474;-61
2022/01/09 02:23:34;;;;;;;1.40;1.30;;;5.70;99.90;;;;;;5075732;28;20491;-61
2022/01/09 02:26:01;;;;;;;1.10;1.00;;;5.70;99.90;;;;;;5075847;28;20448;-61
2022/01/09 02:28:29;;;;;;;1.10;1.00;;;5.70;99.90;;;;;;5075649;28;20452;-61
2022/01/09 02:30:56;;;;;;;1.20;1.10;;;5.60;99.90;;;;;;5075246;28;21013;-60
2022/01/09 02:33:24;;;;;;;1.10;1.00;;;5.60;99.90;;;;;;5075654;28;20440;-61
2022/01/09 02:35:52;;;;;;;2.50;1.43;;;5.70;99.90;;;;;;5075125;28;20977;-63
2022/01/09 02:38:21;;;;;;;1.30;1.20;;;5.70;99.90;;;;;;5075574;28;20529;-61
2022/01/09 02:40:51;;;;;;;1.10;1.00;;;5.70;99.90;;;;;;5075303;28;20504;-62
2022/01/09 02:43:18;;;;;;;1.30;1.20;;;5.70;99.90;;;;;;5075286;28;20559;-62
2022/01/09 02:45:49;;;;;;;1.10;1.00;;;5.70;99.90;;;;;;5075260;28;20962;-62
2022/01/09 02:48:16;;;;;;;1.27;1.17;;;5.70;99.90;;;;;;5075587;28;20482;-61
2022/01/09 02:50:55;;;;;;;1.27;1.17;;;5.60;99.90;;;;;;5075121;28;20535;-61
2022/01/09 02:53:26;;;;;;;1.20;1.10;;;5.60;99.90;;;;;;5075152;28;20432;-61
2022/01/09 02:55:53;;;;;;;1.40;1.10;;;5.60;99.90;;;;;;5075235;28;20435;-61
2022/01/09 02:58:20;;;;;;;1.50;1.40;;;5.60;99.90;;;;;;5074953;28;20456;-61
2022/01/09 03:00:47;;;;;;;1.20;1.10;;;5.60;99.90;;;;;;5075071;28;20464;-61
2022/01/09 03:03:14;;;;;;;1.50;1.40;;;5.60;99.90;;;;;;5074934;28;20448;-61
2022/01/09 03:05:41;;;;;;;1.30;1.20;;;5.60;99.90;;;;;;5074731;28;20448;-61
2022/01/09 03:08:09;;;;;;;1.30;1.20;;;5.60;99.90;;;;;;5074835;28;20535;-61
2022/01/09 03:10:38;;;;;;;1.23;1.10;;;5.50;99.90;;;;;;5074693;28;20502;-61
2022/01/09 03:13:08;;;;;;;2.07;1.40;;;5.70;99.90;;;;;;5074533;28;20444;-61
2022/01/09 03:15:35;;;;;;;1.47;1.37;;;5.60;99.90;;;;;;5074619;28;20476;-62
2022/01/09 03:18:02;;;;;;;1.33;1.23;;;5.70;99.90;;;;;;5074633;28;20471;-62
2022/01/09 03:20:30;;;;;;;1.20;1.10;;;5.70;99.90;;;;;;5074573;28;20476;-62
2022/01/09 03:22:58;;;;;;;1.20;1.10;;;5.60;99.90;;;;;;5073989;28;20526;-62
2022/01/09 03:25:27;;;;;;;1.10;1.00;;;5.70;99.90;;;;;;5074434;28;20876;-62
2022/01/09 03:27:57;;;;;;;1.20;1.10;;;5.70;99.90;;;;;;5074193;28;20807;-62
2022/01/09 03:30:25;;;;;;;1.20;1.07;;;5.80;99.90;;;;;;5074856;28;20555;-62
2022/01/09 03:32:54;;;;;;;1.40;1.27;;;5.80;99.90;;;;;;5074436;28;20523;-62
2022/01/09 03:35:23;;;;;;;1.30;1.20;;;5.80;99.90;;;;;;5074366;28;20444;-62
2022/01/09 03:37:51;;;;;;;1.47;1.37;;;5.80;99.90;;;;;;5074298;28;20448;-61
2022/01/09 03:40:20;;;;;;;1.40;1.20;;;5.80;99.90;;;;;;5074278;28;20831;-62
2022/01/09 03:42:49;;;;;;;1.40;1.30;;;5.70;99.90;;;;;;5074276;28;20448;-62
2022/01/09 03:45:17;;;;;;;1.20;1.10;;;5.70;99.90;;;;;;5073922;28;20478;-62
2022/01/09 03:47:45;;;;;;;1.40;1.30;;;5.70;99.90;;;;;;5074269;28;20456;-63
2022/01/09 03:50:13;;;;;;;1.40;1.30;;;5.70;99.90;;;;;;5073746;28;20942;-62
2022/01/09 03:52:41;;;;;;;1.20;1.10;;;5.70;99.90;;;;;;5073749;28;20456;-62
2022/01/09 03:55:10;;;;;;;1.23;1.13;;;5.70;99.90;;;;;;5074078;28;20535;-62
2022/01/09 03:57:37;;;;;;;1.10;1.00;;;5.60;99.90;;;;;;5074209;28;20444;-62
2022/01/09 04:00:07;;;;;;;1.30;1.20;;;5.70;99.90;;;;;;5073463;28;20453;-62
2022/01/09 04:02:35;;;;;;;1.20;1.10;;;5.70;99.90;;;;;;5073696;28;20444;-63
2022/01/09 04:05:03;;;;;;;1.40;1.30;;;5.70;99.90;;;;;;5073852;28;20827;-62
2022/01/09 04:07:30;;;;;;;1.40;1.30;;;5.70;99.90;;;;;;5073727;28;20547;-62
2022/01/09 04:09:57;;;;;;;1.60;1.13;;;5.70;99.90;;;;;;5073666;28;20456;-62
2022/01/09 04:12:34;;;;;;;1.30;1.20;;;5.80;99.90;;;;;;5073849;28;20441;-62
2022/01/09 04:15:04;;;;;;;1.13;1.03;;;5.80;99.90;;;;;;5073370;28;20476;-63
2022/01/09 04:17:41;;;;;;;1.20;1.10;;;5.90;99.90;;;;;;5073509;28;20525;-62
2022/01/09 04:20:12;;;;;;;1.20;1.10;;;5.80;99.90;;;;;;5073605;28;20445;-62
2022/01/09 04:22:39;;;;;;;2.30;1.30;;;5.70;99.90;;;;;;5073727;28;20428;-62
2022/01/09 04:25:07;;;;;;;1.43;1.33;;;5.80;99.90;;;;;;5073123;28;20480;-62
2022/01/09 04:27:35;;;;;;;1.40;1.23;;;5.80;99.90;;;;;;5073245;28;20444;-62
2022/01/09 04:30:02;;;;;;;1.40;1.30;;;5.90;99.90;;;;;;5073551;28;20450;-62
2022/01/09 04:32:29;;;;;;;1.50;1.40;;;5.80;99.90;;;;;;5073224;28;20539;-62
2022/01/09 04:34:56;;;;;;;1.20;1.10;;;5.70;99.90;;;;;;5073147;28;20440;-62
2022/01/09 04:37:25;;;;;;;1.20;1.10;;;5.70;99.90;;;;;;5073378;28;20448;-62
2022/01/09 04:39:54;;;;;;;1.10;1.00;;;5.70;99.90;;;;;;5073389;28;20487;-62
2022/01/09 04:42:25;;;;;;;1.20;1.10;;;5.60;99.90;;;;;;5072979;28;20526;-62
2022/01/09 04:44:52;;;;;;;1.47;1.10;;;5.60;99.90;;;;;;5073216;28;20464;-62
2022/01/09 04:47:19;;;;;;;1.30;1.20;;;5.60;99.90;;;;;;5073402;28;20460;-61
2022/01/09 04:49:48;;;;;;;1.20;1.10;;;5.60;99.90;;;;;;5073222;28;20497;-62
2022/01/09 04:52:19;;;;;;;1.60;1.23;;;5.60;99.90;;;;;;5073153;28;20480;-62
2022/01/09 04:54:47;;;;;;;1.20;1.10;;;5.50;99.90;;;;;;5073138;28;20486;-62
2022/01/09 04:57:15;;;;;;;1.33;1.23;;;5.40;99.90;;;;;;5073404;28;20505;-62
2022/01/09 04:59:42;;;;;;;1.20;1.10;;;5.30;99.90;;;;;;5072844;28;20824;-62
2022/01/09 05:02:09;;;;;;;1.30;1.20;;;5.30;99.90;;;;;;5072772;28;21050;-62
2022/01/09 05:04:36;;;;;;;1.20;1.10;;;5.20;99.90;;;;;;5073191;28;20480;-62
2022/01/09 05:07:03;;;;;;;1.10;1.00;;;5.10;99.90;;;;;;5072846;28;20452;-62
2022/01/09 05:09:31;;;;;;;1.27;1.17;;;5.00;99.90;;;;;;5073009;28;20812;-62
2022/01/09 05:11:59;;;;;;;1.30;1.20;;;4.90;99.90;;;;;;5073177;28;20471;-62
2022/01/09 05:14:27;;;;;;;1.10;1.00;;;4.90;99.90;;;;;;5072558;28;20804;-62
2022/01/09 05:16:54;;;;;;;1.10;1.00;;;4.90;99.90;;;;;;5073009;28;20463;-62
2022/01/09 05:19:28;;;;;;;1.73;1.10;;;4.80;99.90;;;;;;5072826;28;20451;-62
2022/01/09 05:21:56;;;;;;;1.30;1.20;;;4.70;99.90;;;;;;5072676;28;20563;-61
2022/01/09 05:24:23;;;;;;;1.20;1.10;;;4.70;99.90;;;;;;5072564;28;20475;-61
2022/01/09 05:26:51;;;;;;;1.20;1.10;;;4.60;99.90;;;;;;5072744;28;20449;-61
2022/01/09 05:29:19;;;;;;;1.30;1.20;;;4.60;99.90;;;;;;5072973;28;20448;-61
2022/01/09 05:31:48;;;;;;;1.20;1.10;;;4.60;99.90;;;;;;5072781;28;20475;-62
2022/01/09 05:34:15;;;;;;;1.20;1.10;;;4.60;99.90;;;;;;5072844;28;20809;-61
2022/01/09 05:36:43;;;;;;;1.10;1.00;;;4.40;99.90;;;;;;5072815;28;20957;-62
2022/01/09 05:39:10;;;;;;;1.10;1.00;;;4.50;99.90;;;;;;5072527;28;20501;-62
2022/01/09 05:41:40;;;;;;;1.20;1.10;;;4.40;99.90;;;;;;5072650;28;20468;-61
2022/01/09 05:44:07;;;;;;;1.20;1.10;;;4.30;99.90;;;;;;5072916;28;20799;-62
2022/01/09 05:46:35;;;;;;;1.17;1.07;;;4.30;99.90;;;;;;5074472;28;20470;-62
2022/01/09 05:49:02;;;;;;;1.30;1.20;;;4.30;99.90;;;;;;5076466;28;20439;-62
2022/01/09 05:51:30;;;;;;;2.63;1.20;;;4.30;99.90;;;;;;5076445;28;20495;-62
2022/01/09 05:53:57;;;;;;;1.20;1.10;;;4.40;99.90;;;;;;5076387;28;20837;-62
2022/01/09 05:56:24;;;;;;;1.30;1.20;;;4.30;99.90;;;;;;5076331;28;20451;-62
2022/01/09 05:58:51;;;;;;;1.20;1.10;;;4.20;99.90;;;;;;5076444;28;20797;-62
2022/01/09 06:01:18;;;;;;;1.20;1.10;;;4.30;99.90;;;;;;5076025;28;20974;-62
2022/01/09 06:03:46;;;;;;;1.20;1.10;;;4.20;99.90;;;;;;5076151;28;20455;-62
2022/01/09 06:06:14;;;;;;;1.50;1.40;;;4.30;99.90;;;;;;5075871;28;20490;-62
2022/01/09 06:08:41;;;;;;;1.77;1.50;;;4.30;99.90;;;;;;5076161;28;20810;-62
2022/01/09 06:11:08;;;;;;;3.33;1.30;;;4.40;99.90;;;;;;5075617;28;20555;-62
2022/01/09 06:13:35;;;;;;;2.70;1.20;;;4.40;99.90;;;;;;5076425;28;20455;-62
2022/01/09 06:16:03;;;;;;;1.40;1.30;;;4.30;99.90;;;;;;5075664;28;20834;-62
2022/01/09 06:18:31;;;;;;;1.50;1.40;;;4.40;99.90;;;;;;5076110;28;20555;-62
2022/01/09 06:20:59;;;;;;;1.27;1.17;;;4.40;99.90;;;;;;5075621;28;20978;-63
2022/01/09 06:23:26;;;;;;;1.50;1.40;;;4.40;99.90;;;;;;5075689;28;20444;-62
2022/01/09 06:25:54;;;;;;;3.13;1.23;;;4.50;99.90;;;;;;5075425;28;20484;-63
2022/01/09 06:28:21;;;;;;;1.40;1.30;;;4.60;99.90;;;;;;5075759;28;20444;-62
2022/01/09 06:30:49;;;;;;;1.40;1.27;;;4.50;99.90;;;;;;5075799;28;20475;-63
2022/01/09 06:33:16;;;;;;;1.53;1.43;;;4.60;99.90;;;;;;5075297;28;20811;-62
2022/01/09 06:35:44;;;;;;;1.27;1.17;;;4.60;99.90;;;;;;5075600;28;20440;-63
2022/01/09 06:38:13;;;;;;;1.60;1.50;;;4.60;99.90;;;;;;5075719;28;20451;-62
2022/01/09 06:40:40;;;;;;;1.60;1.30;;;4.50;99.90;;;;;;5075295;28;20797;-62
2022/01/09 06:43:08;;;;;;;1.40;1.30;;;4.50;99.90;;;;;;5075293;28;20919;-62
2022/01/09 06:45:36;;;;;;;1.27;1.17;;;4.40;99.90;;;;;;5075167;28;20476;-62
2022/01/09 06:48:03;;;;;;;1.30;1.20;;;4.30;99.90;;;;;;5075350;28;20452;-62
2022/01/09 06:50:31;;;;;;;1.20;1.10;;;4.40;99.90;;;;;;5074947;28;20503;-62
2022/01/09 06:52:58;;;;;;;2.57;1.30;;;4.50;99.90;;;;;;5075347;28;20432;-63
2022/01/09 06:55:27;;;;;;;2.07;1.40;;;4.60;99.90;;;;;;5075211;28;20535;-63
2022/01/09 06:57:54;;;;;;;1.40;1.30;;;4.60;99.90;;;;;;5073990;28;20448;-62
2022/01/09 07:00:22;;;;;;;1.40;1.30;;;4.50;99.90;;;;;;5075005;28;20468;-62
2022/01/09 07:02:50;;;;;;;1.40;1.30;;;4.40;99.90;;;;;;5075005;28;20449;-62
2022/01/09 07:05:17;;;;;;;6.43;1.67;;;4.40;99.90;;;;;;5074941;28;20480;-62
2022/01/09 07:07:45;;;;;;;2.17;1.33;;;4.40;99.90;;;;;;5075013;28;20452;-63
2022/01/09 07:10:13;;;;;;;1.30;1.20;;;4.40;99.90;;;;;;5074654;28;20539;-63
2022/01/09 07:12:42;;;;;;;1.50;1.40;;;4.50;99.90;;;;;;5074925;28;20444;-63
2022/01/09 07:15:10;;;;;;;4.70;1.30;;;4.40;99.90;;;;;;5074650;28;20834;-63
2022/01/09 07:17:37;;;;;;;1.50;1.40;;;4.40;99.90;;;;;;5074890;28;20460;-62
2022/01/09 07:20:06;;;;;;;3.07;1.50;;;4.50;99.90;;;;;;5074629;28;20436;-63
2022/01/09 07:22:33;;;;;;;1.83;1.73;;;4.40;99.90;;;;;;5074685;28;20461;-62
2022/01/09 07:25:00;;;;;;;1.90;1.60;;;4.40;99.90;;;;;;5074432;28;20469;-62
2022/01/09 07:27:27;;;;;;;1.73;1.63;;;4.50;99.90;;;;;;5074271;28;20543;-62
2022/01/09 07:29:56;;;;;;;1.93;1.50;;;4.50;99.90;;;;;;5074582;28;20448;-62
2022/01/09 07:32:23;;;;;;;4.30;1.80;;;4.60;99.90;;;;;;5074620;28;20456;-63
2022/01/09 07:34:50;;;;;;;1.97;1.73;;;4.60;99.90;;;;;;5074476;28;20440;-63
2022/01/09 07:37:17;;;;;;;2.30;1.73;;;4.50;99.90;;;;;;5074081;28;20915;-62
2022/01/09 07:39:44;;;;;;;2.33;1.70;;;4.60;99.90;;;;;;5074297;28;20449;-63
2022/01/09 07:42:11;;;;;;;3.67;1.83;;;4.60;99.90;;;;;;5073948;28;20460;-62
2022/01/09 07:44:38;;;;;;;3.07;1.80;;;4.60;99.90;;;;;;5073976;28;20926;-62
2022/01/09 07:47:07;;;;;;;4.07;2.00;;;4.60;99.90;;;;;;5074130;28;20432;-62
2022/01/09 07:49:34;;;;;;;4.03;2.03;;;4.50;99.90;;;;;;5074388;28;20470;-62
2022/01/09 07:52:01;;;;;;;5.87;2.20;;;4.40;99.90;;;;;;5073751;28;20475;-63
2022/01/09 07:54:28;;;;;;;2.43;1.80;;;4.40;99.90;;;;;;5073781;28;20444;-62
2022/01/09 07:56:55;;;;;;;11.83;2.07;;;4.40;99.90;;;;;;5074135;28;20444;-62
2022/01/09 07:59:22;;;;;;;2.97;2.10;;;4.50;99.90;;;;;;5073665;28;20458;-62
2022/01/09 08:01:50;;;;;;;2.10;1.90;;;4.50;99.90;;;;;;5073854;28;20514;-62
2022/01/09 08:04:19;;;;;;;7.83;1.97;;;4.50;99.90;;;;;;5073686;28;20455;-61
2022/01/09 08:06:46;;;;;;;5.40;2.10;;;4.50;99.90;;;;;;5073772;28;20488;-62
2022/01/09 08:09:13;;;;;;;5.10;2.27;;;4.60;99.90;;;;;;5073515;28;20445;-62
2022/01/09 08:11:40;;;;;;;5.73;2.20;;;4.60;99.90;;;;;;5073885;28;20452;-61
2022/01/09 08:14:07;;;;;;;3.80;2.17;;;4.60;99.90;;;;;;5073430;28;20488;-62
2022/01/09 08:16:35;;;;;;;2.43;1.90;;;4.60;99.90;;;;;;5073193;28;20844;-62
2022/01/09 08:19:02;;;;;;;4.30;2.07;;;4.50;99.90;;;;;;5073836;28;20514;-62
2022/01/09 08:21:31;;;;;;;6.10;2.30;;;4.60;99.90;;;;;;5073573;28;20475;-62
2022/01/09 08:23:58;;;;;;;3.90;2.30;;;4.80;99.90;;;;;;5073260;28;20982;-61
2022/01/09 08:26:25;;;;;;;4.43;1.97;;;4.60;99.90;;;;;;5073645;28;20491;-62
2022/01/09 08:28:54;;;;;;;4.83;2.20;;;4.60;99.90;;;;;;5073513;28;20874;-62
2022/01/09 08:31:22;;;;;;;4.53;1.80;;;4.50;99.90;;;;;;5073151;28;21016;-63
2022/01/09 08:33:49;;;;;;;1.63;1.50;;;4.60;99.90;;;;;;5073656;28;20444;-62
2022/01/09 08:36:16;;;;;;;4.20;2.27;;;4.60;99.90;;;;;;5073479;28;20455;-63
2022/01/09 08:38:45;;;;;;;4.00;1.73;;;4.60;99.90;;;;;;5073307;28;20449;-61
2022/01/09 08:41:12;;;;;;;3.80;2.97;;;4.50;99.90;;;;;;5073048;28;20555;-62
2022/01/09 08:43:39;;;;;;;6.83;2.53;;;4.60;99.90;;;;;;5073477;28;20452;-62
2022/01/09 08:46:07;;;;;;;2.27;2.10;;;4.60;99.90;;;;;;5073144;28;20469;-62
2022/01/09 08:48:34;;;;;;;8.00;1.83;;;4.70;99.90;;;;;;5073458;28;20915;-62
2022/01/09 08:51:03;;;;;;;6.17;2.23;;;4.70;99.90;;;;;;5073142;28;20478;-62
2022/01/09 08:53:31;;;;;;;5.43;2.13;;;4.70;99.90;;;;;;5072923;28;20452;-62
2022/01/09 08:56:00;;;;;;;3.50;1.73;;;4.70;99.90;;;;;;5073217;28;20440;-62
2022/01/09 08:58:27;;;;;;;6.70;2.17;;;4.70;99.90;;;;;;5073246;28;20531;-62
2022/01/09 09:00:54;;;;;;;5.80;2.30;;;4.80;99.90;;;;;;5072766;28;20464;-62
2022/01/09 09:03:21;;;;;;;4.17;2.13;;;4.90;99.90;;;;;;5073105;28;20536;-62
2022/01/09 09:05:48;;;;;;;5.63;2.57;;;4.90;99.90;;;;;;5073127;28;20480;-62
2022/01/09 09:08:15;;;;;;;2.70;1.87;;;4.80;99.90;;;;;;5073024;28;20424;-62
2022/01/09 09:10:43;;;;;;;2.83;2.00;;;4.90;99.90;;;;;;5072713;28;20471;-62
2022/01/09 09:13:11;;;;;;;5.00;2.10;;;5.00;99.90;;;;;;5072875;28;20452;-62
2022/01/09 09:15:38;;;;;;;3.67;2.10;;;5.00;99.90;;;;;;5071954;28;20559;-63
2022/01/09 09:18:05;;;;;;;7.33;2.20;;;5.00;99.90;;;;;;5073121;28;20464;-62
2022/01/09 09:20:32;;;;;;;3.00;2.40;;;5.20;99.90;;;;;;5073382;28;20464;-63
2022/01/09 09:22:59;;;;;;;2.83;2.00;;;5.00;99.90;;;;;;5076629;28;20452;-64
2022/01/09 09:25:27;;;;;;;3.50;2.23;;;4.90;99.90;;;;;;5076547;28;20571;-63
2022/01/09 09:27:54;;;;;;;4.87;3.60;;;4.90;99.90;;;;;;5077008;28;20538;-62
2022/01/09 09:30:22;;;;;;;3.63;2.17;;;5.00;99.90;;;;;;5076537;28;21100;-63
2022/01/09 09:32:50;;;;;;;3.27;2.10;;;5.00;99.90;;;;;;5076472;28;20448;-62
2022/01/09 09:35:18;;;;;;;2.53;1.90;;;5.20;99.90;;;;;;5076516;28;20551;-62
2022/01/09 09:37:45;;;;;;;8.10;2.40;;;5.30;99.90;;;;;;5076829;28;20448;-62
2022/01/09 09:40:12;;;;;;;4.87;2.07;;;5.00;99.90;;;;;;5076645;28;20816;-62
2022/01/09 09:42:40;;;;;;;6.30;2.57;;;5.10;99.90;;;;;;5076227;28;20451;-62
2022/01/09 09:45:09;;;;;;;2.50;2.13;;;4.80;99.90;;;;;;5076712;28;20812;-62
2022/01/09 09:47:39;;;;;;;3.73;2.57;;;4.60;99.90;;;;;;5076532;28;20463;-62
2022/01/09 09:50:09;;;;;;;5.17;2.77;;;4.50;99.90;;;;;;5076727;28;20794;-61
2022/01/09 09:52:36;;;;;;;4.57;3.20;;;4.50;99.90;;;;;;5076169;28;20977;-62
2022/01/09 09:55:04;;;;;;;7.30;2.50;;;4.60;99.90;;;;;;5075971;28;20455;-62
2022/01/09 09:57:31;;;;;;;11.67;2.87;;;4.80;99.90;;;;;;5075923;28;20451;-62
2022/01/09 10:00:07;;;;;;;5.73;2.67;;;4.90;99.90;;;;;;5076119;28;20448;-63
2022/01/09 10:02:47;;;;;;;2.53;2.00;;;5.10;99.90;;;;;;5076054;28;20424;-63
2022/01/09 10:05:15;;;;;;;2.97;1.90;;;5.30;99.90;;;;;;5075915;28;20530;-63
2022/01/09 10:07:43;;;;;;;3.87;2.47;;;5.40;99.90;;;;;;5075742;28;20444;-63
2022/01/09 10:10:14;;;;;;;5.43;2.50;;;5.40;99.90;;;;;;5076064;28;20448;-63
2022/01/09 10:12:42;;;;;;;6.40;2.57;;;5.50;99.90;;;;;;5075757;28;20428;-63
2022/01/09 10:15:12;;;;;;;6.07;3.10;;;5.50;99.90;;;;;;5075685;28;20476;-63
2022/01/09 10:17:43;;;;;;;4.07;2.60;;;5.30;99.90;;;;;;5075770;28;20531;-63
2022/01/09 10:20:14;;;;;;;5.00;2.67;;;5.40;99.90;;;;;;5075997;28;20512;-63
2022/01/09 10:22:44;;;;;;;6.33;2.20;;;5.20;99.90;;;;;;5075869;28;20397;-62
2022/01/09 10:25:30;;;;;;;4.70;2.50;;;5.10;99.90;;;;;;5075393;28;20437;-63
2022/01/09 10:28:00;;;;;;;4.20;2.83;;;4.90;99.90;;;;;;5075623;28;20490;-63
2022/01/09 10:30:29;;;;;;;7.87;2.80;;;4.90;99.90;;;;;;5075638;28;20471;-63
2022/01/09 10:35:51;;;;;;;2.70;1.90;;;5.30;99.90;;;;;;5075214;28;20432;-63
2022/01/09 10:38:22;;;;;;;2.97;2.17;;;5.60;99.90;;;;;;5075336;28;20448;-63
2022/01/09 10:40:53;;;;;;;7.43;2.40;;;5.80;99.90;;;;;;5075169;28;20967;-63
2022/01/09 10:43:22;;;;;;;3.17;2.03;;;5.80;99.90;;;;;;5075313;28;20539;-63
2022/01/09 10:45:59;;;;;;;6.10;2.13;;;5.70;99.90;;;;;;5075497;28;20571;-63
2022/01/09 10:48:27;;;;;;;8.00;2.37;;;5.40;99.90;;;;;;5075711;28;20484;-63
2022/01/09 10:50:56;;;;;;;6.10;2.10;;;5.40;99.90;;;;;;5074901;28;20470;-62
2022/01/09 10:53:30;;;;;;;3.20;2.57;;;5.10;99.90;;;;;;5074905;28;20458;-62
2022/01/09 10:56:10;;;;;;;2.40;2.20;;;5.00;99.90;;;;;;5075332;28;20431;-63
2022/01/09 10:58:40;;;;;;;4.90;2.67;;;5.10;99.90;;;;;;5074933;28;20849;-61
2022/01/09 11:01:20;;;;;;;3.83;2.47;;;4.90;99.90;;;;;;5075068;28;20471;-62
2022/01/09 11:03:49;;;;;;;6.13;2.20;;;5.10;99.90;;;;;;5074817;28;20433;-63
2022/01/09 11:06:24;;;;;;;4.37;2.80;;;6.30;99.90;;;;;;5074949;28;20492;-62
2022/01/09 11:08:52;;;;;;;4.97;2.57;;;7.70;99.90;;;;;;5074855;28;20511;-63
2022/01/09 11:11:28;;;;;;;5.00;2.00;;;8.60;99.90;;;;;;5074578;28;20471;-63
2022/01/09 11:13:57;;;;;;;3.33;2.50;;;10.10;99.90;;;;;;5074820;28;20444;-62
2022/01/09 11:16:34;;;;;;;6.23;1.80;;;;;;;;;;5074354;28;20480;-63
2022/01/09 11:19:05;;;;;;;8.10;2.10;;;10.90;99.90;;;;;;5074944;28;20421;-62
2022/01/09 11:21:34;;;;;;;4.87;1.73;;;10.20;99.90;;;;;;5074519;28;20468;-62
2022/01/09 11:24:20;;;;;;;2.90;2.50;;;;;;;;;;5074343;28;20455;-62
2022/01/09 11:26:51;;;;;;;5.70;2.83;;;7.70;99.90;;;;;;5074060;28;20484;-62
2022/01/09 11:29:28;;;;;;;5.70;2.23;;;7.20;99.90;;;;;;5074369;28;20437;-63
2022/01/09 11:32:08;;;;;;;3.10;2.00;;;7.10;99.90;;;;;;5074166;28;20566;-62
2022/01/09 11:34:42;;;;;;;4.13;2.17;;;6.80;99.90;;;;;;5074210;28;20436;-63
2022/01/09 11:37:23;;;;;;;2.80;2.27;;;6.70;99.90;;;;;;5074577;28;20437;-62
2022/01/09 11:39:51;;;;;;;5.03;1.90;;;6.50;99.90;;;;;;5074859;28;20447;-63
2022/01/09 11:42:18;;;;;;;3.20;1.57;;;6.50;99.90;;;;;;5073951;28;20448;-63
2022/01/09 11:44:47;;;;;;;4.47;2.47;;;6.80;99.90;;;;;;5073410;28;20448;-63
2022/01/09 11:47:14;;;;;;;7.57;2.53;;;8.10;99.90;;;;;;5074204;28;20490;-62
2022/01/09 11:50:08;;;;;;;2.97;2.00;;;9.00;99.90;;;;;;5074152;28;20451;-61
2022/01/09 11:52:59;;;;;;;5.10;2.00;;;9.20;99.90;;;;;;5073934;28;20437;-61
2022/01/09 11:55:38;;;;;;;3.10;2.00;;;8.60;99.90;;;;;;5073751;28;20452;-62
2022/01/09 11:58:09;;;;;;;3.27;2.07;;;7.90;99.90;;;;;;5074057;28;20459;-61
2022/01/09 12:00:39;;;;;;;5.10;2.17;;;7.70;99.90;;;;;;5073914;28;20818;-63
2022/01/09 12:03:37;;;;;;;2.37;2.17;;;7.70;99.90;;;;;;5073645;28;20879;-61
2022/01/09 12:06:08;;;;;;;1.93;1.60;;;7.40;99.90;;;;;;5068927;28;20934;-63
2022/01/09 12:09:07;;;;;;;5.50;1.90;;;7.10;99.90;;;;;;5073531;28;20478;-62
2022/01/09 12:12:06;;;;;;;2.23;1.60;;;7.00;99.90;;;;;;5073548;28;20559;-62
2022/01/09 12:14:53;;;;;;;3.10;2.80;;;7.10;99.90;;;;;;5073779;28;20460;-63
2022/01/09 12:17:42;;;;;;;4.40;2.10;;;7.40;99.90;;;;;;5072889;28;20459;-63
2022/01/09 12:20:24;;;;;;;6.23;2.43;;;7.20;99.90;;;;;;5072573;28;20425;-61
2022/01/09 12:23:01;;;;;;;2.80;1.63;;;7.20;99.90;;;;;;5072554;28;20933;-61
2022/01/09 12:25:54;;;;;;;4.80;2.77;;;7.00;99.90;;;;;;5072725;28;20428;-62
2022/01/09 12:28:24;;;;;;;4.10;1.90;;;7.30;99.90;;;;;;5072387;28;20464;-61
2022/01/09 12:30:56;;;;;;;3.10;2.27;;;7.30;99.90;;;;;;5072416;28;20839;-62
2022/01/09 12:34:00;;;;;;;3.00;2.20;;;6.90;99.90;;;;;;5072348;28;20443;-61
2022/01/09 12:36:33;;;;;;;2.17;1.60;;;6.50;99.90;;;;;;5010665;28;20522;-62
2022/01/09 12:39:05;;;;;;;3.37;1.97;;;6.80;99.90;;;;;;5010710;28;20411;-62
2022/01/09 12:41:42;;;;;;;5.70;2.10;;;7.10;99.90;;;;;;5043476;28;20460;-62
2022/01/09 12:44:09;;;;;;;5.10;2.10;;;7.00;99.90;;;;;;5072068;28;20796;-62
2022/01/09 12:46:44;;;;;;;2.00;1.63;;;6.70;99.90;;;;;;5072361;28;20503;-62
2022/01/09 12:49:15;;;;;;;4.70;1.70;;;6.70;99.90;;;;;;5072471;28;20441;-62
2022/01/09 12:51:47;;;;;;;6.70;2.10;;;6.70;99.90;;;;;;5072354;28;20472;-62
2022/01/09 12:54:16;;;;;;;1.90;1.73;;;6.60;99.90;;;;;;5072026;28;20433;-62
2022/01/09 12:56:43;;;;;;;3.70;2.03;;;6.60;99.90;;;;;;5071146;28;20447;-62
2022/01/09 12:59:12;;;;;;;3.53;1.90;;;7.00;99.90;;;;;;5072194;28;20449;-62
2022/01/09 13:01:41;;;;;;;4.40;2.27;;;7.20;99.90;;;;;;5071861;28;20500;-62
2022/01/09 13:04:11;;;;;;;4.53;1.97;;;6.80;99.90;;;;;;5071995;28;20989;-63
2022/01/09 13:06:40;;;;;;;2.47;2.00;;;6.50;99.90;;;;;;5072190;28;20474;-62
2022/01/09 13:09:13;;;;;;;6.43;2.60;;;6.30;99.90;;;;;;5072047;28;20448;-61
2022/01/09 13:11:42;;;;;;;2.87;2.37;;;6.20;99.90;;;;;;5071975;28;20436;-62